createdAt,value
2023-01-30T00:00:36.902Z,98843.40
2023-01-30T00:03:29.485Z,98839.50
2023-01-30T00:06:22.353Z,98830.09
2023-01-30T00:09:15.841Z,98820.64
2023-01-30T00:12:09.115Z,98812.91
2023-01-30T00:15:01.241Z,98809.60
2023-01-30T00:17:53.359Z,98800.27
2023-01-30T00:20:45.532Z,98789.89
2023-01-30T00:23:38.586Z,98781.23
2023-01-30T00:26:30.764Z,98778.98
2023-01-30T00:29:22.845Z,98773.52
2023-01-30T00:32:14.899Z,98767.04
2023-01-30T00:35:08.095Z,98759.48
2023-01-30T00:38:01.813Z,98756.84
2023-01-30T00:40:53.937Z,98761.14
2023-01-30T00:44:03.643Z,98758.27
2023-01-30T00:47:08.968Z,98758.48
2023-01-30T00:49:44.604Z,98752.67
2023-01-30T00:52:36.821Z,98748.54
2023-01-30T00:55:28.953Z,98743.81
2023-01-30T00:58:21.595Z,98741.56
2023-01-30T01:01:13.825Z,98733.30
2023-01-30T01:04:07.456Z,98730.98
2023-01-30T01:06:59.499Z,98728.18
2023-01-30T01:09:51.532Z,98724.04
2023-01-30T01:12:44.646Z,98711.96
2023-01-30T01:15:37.204Z,98703.52
2023-01-30T01:18:29.561Z,98700.55
2023-01-30T01:21:22.537Z,98698.83
2023-01-30T01:24:16.494Z,98694.71
2023-01-30T01:26:59.495Z,98682.83
2023-01-30T01:29:51.435Z,98676.38
2023-01-30T01:32:43.511Z,98678.74
2023-01-30T01:35:35.655Z,98676.32
2023-01-30T01:38:27.813Z,98676.30
2023-01-30T01:41:20.747Z,98671.50
2023-01-30T01:44:15.202Z,98669.16
2023-01-30T01:46:56.157Z,98663.80
2023-01-30T01:49:48.307Z,98657.75
2023-01-30T01:52:41.027Z,98652.05
2023-01-30T01:55:35.245Z,98645.28
2023-01-30T01:58:30.215Z,98638.00
2023-01-30T02:01:22.421Z,98621.73
2023-01-30T02:04:35.416Z,98614.59
2023-01-30T02:07:30.609Z,98609.52
2023-01-30T02:10:26.387Z,98596.84
2023-01-30T02:13:18.687Z,98592.75
2023-01-30T02:16:11.058Z,98587.88
2023-01-30T02:19:03.245Z,98583.70
2023-01-30T02:22:27.795Z,98581.04
2023-01-30T02:25:50.465Z,98568.10
2023-01-30T02:29:36.172Z,98562.48
2023-01-30T02:32:36.643Z,98559.88
2023-01-30T02:35:33.767Z,98560.73
2023-01-30T02:38:39.676Z,98557.75
2023-01-30T02:41:38.028Z,98545.31
2023-01-30T02:44:35.729Z,98534.80
2023-01-30T02:47:34.792Z,98519.05
2023-01-30T02:50:30.374Z,98523.73
2023-01-30T02:53:22.810Z,98520.29
2023-01-30T02:56:14.920Z,98504.74
2023-01-30T02:59:08.405Z,98511.59
2023-01-30T03:02:05.804Z,98517.30
2023-01-30T03:05:20.325Z,98523.95
2023-01-30T03:08:24.115Z,98505.95
2023-01-30T03:11:14.148Z,98502.21
2023-01-30T03:13:57.079Z,98489.44
2023-01-30T03:16:52.809Z,98485.93
2023-01-30T03:19:45.731Z,98488.84
2023-01-30T03:22:37.906Z,98488.89
2023-01-30T03:25:30.338Z,98481.16
2023-01-30T03:28:23.280Z,98494.24
2023-01-30T03:31:15.932Z,98488.86
2023-01-30T03:34:08.071Z,98483.92
2023-01-30T03:37:00.277Z,98483.20
2023-01-30T03:39:52.403Z,98476.10
2023-01-30T03:42:44.725Z,98468.80
2023-01-30T03:45:37.432Z,98460.05
2023-01-30T03:48:14.748Z,98452.17
2023-01-30T03:51:07.566Z,98447.35
2023-01-30T03:53:59.744Z,98444.64
2023-01-30T03:56:51.846Z,98433.44
2023-01-30T03:59:44.100Z,98430.40
2023-01-30T04:02:36.255Z,98426.02
2023-01-30T04:05:28.542Z,98409.05
2023-01-30T04:08:20.686Z,98405.40
2023-01-30T04:11:12.790Z,98401.41
2023-01-30T04:14:04.961Z,98394.59
2023-01-30T04:16:57.020Z,98388.66
2023-01-30T04:19:49.206Z,98386.98
2023-01-30T04:22:41.368Z,98380.61
2023-01-30T04:25:33.483Z,98376.21
2023-01-30T04:28:25.973Z,98374.08
2023-01-30T04:31:18.198Z,98370.23
2023-01-30T04:34:10.288Z,98372.83
2023-01-30T04:36:44.823Z,98366.39
2023-01-30T04:39:36.897Z,98359.09
2023-01-30T04:42:29.059Z,98361.45
2023-01-30T04:45:21.211Z,98361.42
2023-01-30T04:48:13.693Z,98367.56
2023-01-30T04:51:06.199Z,98369.14
2023-01-30T04:53:58.273Z,98370.54
2023-01-30T04:56:33.195Z,98359.67
2023-01-30T04:59:25.213Z,98355.18
2023-01-30T05:02:17.400Z,98347.88
2023-01-30T05:05:10.689Z,98340.55
2023-01-30T05:08:02.854Z,98330.27
2023-01-30T05:10:54.923Z,98325.73
2023-01-30T05:13:47.855Z,98323.73
2023-01-30T05:16:40.000Z,98319.73
2023-01-30T05:19:32.023Z,98318.02
2023-01-30T05:22:24.123Z,98325.78
2023-01-30T05:25:16.838Z,98315.65
2023-01-30T05:28:09.126Z,98307.88
2023-01-30T05:31:05.503Z,98308.70
2023-01-30T05:33:57.723Z,98303.56
2023-01-30T05:36:49.805Z,98299.61
2023-01-30T05:39:41.948Z,98298.11
2023-01-30T05:42:17.209Z,98304.98
2023-01-30T05:45:11.430Z,98305.65
2023-01-30T05:48:03.791Z,98283.90
2023-01-30T05:50:57.886Z,98271.58
2023-01-30T05:53:50.161Z,98255.09
2023-01-30T05:56:42.316Z,98247.35
2023-01-30T05:59:34.465Z,98249.20
2023-01-30T06:02:26.541Z,98235.64
2023-01-30T06:05:19.203Z,98237.80
2023-01-30T06:08:11.521Z,98230.55
2023-01-30T06:11:05.183Z,98225.67
2023-01-30T06:13:57.294Z,98241.77
2023-01-30T06:16:49.416Z,98234.45
2023-01-30T06:19:41.486Z,98217.95
2023-01-30T06:22:33.492Z,98196.13
2023-01-30T06:25:25.624Z,98211.11
2023-01-30T06:28:18.591Z,98213.03
2023-01-30T06:31:11.567Z,98212.78
2023-01-30T06:34:03.739Z,98209.48
2023-01-30T06:36:55.802Z,98204.15
2023-01-30T06:39:47.981Z,98201.50
2023-01-30T06:42:40.216Z,98201.27
2023-01-30T06:45:32.505Z,98199.73
2023-01-30T06:48:24.639Z,98198.98
2023-01-30T06:51:16.790Z,98190.23
2023-01-30T06:54:08.963Z,98182.77
2023-01-30T06:57:01.097Z,98185.84
2023-01-30T06:59:53.436Z,98184.88
2023-01-30T07:02:45.837Z,98191.48
2023-01-30T07:05:39.895Z,98195.93
2023-01-30T07:08:32.057Z,98186.80
2023-01-30T07:11:24.131Z,98188.55
2023-01-30T07:14:07.243Z,98178.30
2023-01-30T07:16:59.523Z,98163.96
2023-01-30T07:19:51.973Z,98145.91
2023-01-30T07:22:44.260Z,98142.21
2023-01-30T07:25:36.552Z,98143.84
2023-01-30T07:28:28.742Z,98140.19
2023-01-30T07:31:20.890Z,98130.20
2023-01-30T07:34:12.997Z,98126.97
2023-01-30T07:37:05.068Z,98125.83
2023-01-30T07:39:57.112Z,98128.85
2023-01-30T07:42:58.847Z,98130.29
2023-01-30T07:45:51.259Z,98128.62
2023-01-30T07:48:45.113Z,98125.14
2023-01-30T07:51:35.677Z,98118.50
2023-01-30T07:54:27.750Z,98118.20
2023-01-30T07:57:20.073Z,98115.61
2023-01-30T08:00:16.664Z,98110.18
2023-01-30T08:03:12.367Z,98103.77
2023-01-30T08:06:04.531Z,98116.58
2023-01-30T08:08:56.558Z,98119.67
2023-01-30T08:11:48.584Z,98120.70
2023-01-30T08:14:40.661Z,98115.80
2023-01-30T08:17:32.778Z,98103.79
2023-01-30T08:20:25.341Z,98089.77
2023-01-30T08:23:17.436Z,98080.76
2023-01-30T08:26:09.703Z,98080.32
2023-01-30T08:29:01.793Z,98086.15
2023-01-30T08:31:57.782Z,98079.41
2023-01-30T08:34:49.865Z,98070.22
2023-01-30T08:37:43.051Z,98070.52
2023-01-30T08:40:35.200Z,98073.41
2023-01-30T08:43:10.383Z,98076.04
2023-01-30T08:46:02.545Z,98069.79
2023-01-30T08:48:54.665Z,98067.50
2023-01-30T08:51:46.766Z,98068.60
2023-01-30T08:54:38.806Z,98063.63
2023-01-30T08:57:32.852Z,98063.34
2023-01-30T09:00:25.820Z,98061.38
2023-01-30T09:03:18.497Z,98060.71
2023-01-30T09:06:10.687Z,98067.95
2023-01-30T09:08:53.005Z,98056.30
2023-01-30T09:11:33.778Z,98051.55
2023-01-30T09:14:25.888Z,98054.29
2023-01-30T09:17:18.007Z,98050.27
2023-01-30T09:20:12.472Z,98048.86
2023-01-30T09:23:05.160Z,98039.98
2023-01-30T09:25:57.244Z,98031.13
2023-01-30T09:28:49.324Z,98033.61
2023-01-30T09:31:41.619Z,98029.49
2023-01-30T09:34:33.740Z,98029.98
2023-01-30T09:37:25.838Z,98024.90
2023-01-30T09:40:18.588Z,98025.15
2023-01-30T09:43:22.281Z,98015.06
2023-01-30T09:46:24.344Z,98002.52
2023-01-30T09:49:29.199Z,97992.61
2023-01-30T09:52:32.431Z,97988.56
2023-01-30T09:55:28.111Z,97980.35
2023-01-30T09:58:22.653Z,97973.10
2023-01-30T10:01:06.396Z,97966.40
2023-01-30T10:04:08.278Z,97963.17
2023-01-30T10:07:12.069Z,97965.57
2023-01-30T10:09:56.831Z,97959.34
2023-01-30T10:13:02.667Z,97947.41
2023-01-30T10:16:01.792Z,97949.43
2023-01-30T10:19:02.231Z,97952.52
2023-01-30T10:22:02.564Z,97950.39
2023-01-30T10:25:04.481Z,97945.48
2023-01-30T10:28:00.351Z,97937.89
2023-01-30T10:30:56.243Z,97933.36
2023-01-30T10:34:08.815Z,97930.11
2023-01-30T10:37:08.725Z,97921.53
2023-01-30T10:40:06.783Z,97909.69
2023-01-30T10:43:04.369Z,97910.47
2023-01-30T10:46:03.958Z,97901.63
2023-01-30T10:49:02.354Z,97894.17
2023-01-30T10:52:03.834Z,97894.98
2023-01-30T10:55:04.314Z,97892.02
2023-01-30T10:58:02.965Z,97891.00
2023-01-30T11:01:01.324Z,97883.45
2023-01-30T11:03:58.088Z,97892.30
2023-01-30T11:06:50.541Z,97893.27
2023-01-30T11:09:45.795Z,97886.29
2023-01-30T11:12:38.059Z,97881.21
2023-01-30T11:15:41.868Z,97878.21
2023-01-30T11:19:18.140Z,97865.29
2023-01-30T11:21:51.845Z,97859.92
2023-01-30T11:24:45.909Z,97861.48
2023-01-30T11:27:36.598Z,97858.65
2023-01-30T11:30:34.857Z,97856.92
2023-01-30T11:33:35.538Z,97850.32
2023-01-30T11:36:31.459Z,97836.76
2023-01-30T11:39:29.865Z,97830.09
2023-01-30T11:42:25.957Z,97815.77
2023-01-30T11:45:20.493Z,97812.35
2023-01-30T11:48:33.874Z,97807.23
2023-01-30T11:51:34.107Z,97801.83
2023-01-30T11:54:30.091Z,97798.05
2023-01-30T11:57:22.891Z,97799.03
2023-01-30T12:00:21.915Z,97789.28
2023-01-30T12:03:17.751Z,97789.13
2023-01-30T12:06:30.209Z,97790.55
2023-01-30T12:09:35.951Z,97780.52
2023-01-30T12:12:34.524Z,97778.14
2023-01-30T12:15:28.757Z,97780.98
2023-01-30T12:18:25.515Z,97770.63
2023-01-30T12:21:02.439Z,97771.60
2023-01-30T12:24:02.057Z,97768.67
2023-01-30T12:26:58.136Z,97772.98
2023-01-30T12:30:00.313Z,97768.63
2023-01-30T12:32:54.187Z,97763.39
2023-01-30T12:36:03.985Z,97775.88
2023-01-30T12:39:17.832Z,97768.52
2023-01-30T12:42:28.493Z,97763.65
2023-01-30T12:45:20.658Z,97757.59
2023-01-30T12:51:34.694Z,97754.55
2023-01-30T12:54:40.548Z,97753.10
2023-01-30T12:57:41.631Z,97749.48
2023-01-30T13:00:45.937Z,97746.81
2023-01-30T13:03:42.907Z,97746.35
2023-01-30T13:06:53.608Z,97745.91
2023-01-30T13:09:58.336Z,97744.73
2023-01-30T13:13:00.023Z,97747.95
2023-01-30T13:16:01.949Z,97748.54
2023-01-30T13:18:58.730Z,97752.31
2023-01-30T13:21:57.465Z,97748.69
2023-01-30T13:25:00.459Z,97739.83
2023-01-30T13:27:57.329Z,97730.91
2023-01-30T13:30:53.571Z,97731.95
2023-01-30T13:33:47.824Z,97729.07
2023-01-30T13:36:44.589Z,97730.40
2023-01-30T13:39:42.461Z,97724.07
2023-01-30T13:42:38.355Z,97721.45
2023-01-30T13:45:34.294Z,97719.52
2023-01-30T13:48:44.649Z,97710.95
2023-01-30T13:51:46.063Z,97710.67
2023-01-30T13:54:51.941Z,97701.91
2023-01-30T13:57:54.453Z,97706.66
2023-01-30T14:00:56.010Z,97704.87
2023-01-30T14:03:48.242Z,97704.59
2023-01-30T14:06:41.850Z,97692.95
2023-01-30T14:09:34.079Z,97689.10
2023-01-30T14:12:18.224Z,97681.64
2023-01-30T14:15:31.794Z,97680.79
2023-01-30T14:18:27.898Z,97678.50
2023-01-30T14:21:24.553Z,97686.39
2023-01-30T14:24:25.721Z,97681.66
2023-01-30T14:27:24.403Z,97678.56
2023-01-30T14:30:49.241Z,97683.11
2023-01-30T14:33:52.918Z,97688.96
2023-01-30T14:36:50.809Z,97687.94
2023-01-30T14:39:55.527Z,97694.73
2023-01-30T14:43:24.997Z,97696.95
2023-01-30T14:46:54.649Z,97688.94
2023-01-30T14:49:50.267Z,97693.22
2023-01-30T14:52:44.363Z,97697.27
2023-01-30T14:55:36.849Z,97696.55
2023-01-30T14:58:29.001Z,97692.81
2023-01-30T15:01:21.208Z,97693.58
2023-01-30T15:04:19.393Z,97697.69
2023-01-30T15:07:15.697Z,97699.55
2023-01-30T15:10:14.950Z,97703.17
2023-01-30T15:13:24.436Z,97698.20
2023-01-30T15:16:34.126Z,97705.08
2023-01-30T15:19:40.535Z,97707.95
2023-01-30T15:22:48.016Z,97705.77
2023-01-30T15:26:12.776Z,97715.81
2023-01-30T15:29:43.397Z,97713.14
2023-01-30T15:32:36.108Z,97716.92
2023-01-30T15:35:30.680Z,97721.84
2023-01-30T15:38:30.397Z,97723.48
2023-01-30T15:41:22.530Z,97731.91
2023-01-30T15:44:39.034Z,97735.84
2023-01-30T15:47:47.673Z,97736.87
2023-01-30T15:50:40.607Z,97738.23
2023-01-30T15:53:17.857Z,97739.59
2023-01-30T15:56:17.567Z,97745.85
2023-01-30T15:59:21.947Z,97744.38
2023-01-30T16:02:15.698Z,97747.92
2023-01-30T16:05:16.928Z,97751.74
2023-01-30T16:08:24.684Z,97745.20
2023-01-30T16:11:32.350Z,97755.46
2023-01-30T16:14:24.723Z,97766.39
2023-01-30T16:17:18.964Z,97769.86
2023-01-30T16:20:16.567Z,97772.65
2023-01-30T16:23:26.207Z,97772.85
2023-01-30T16:26:21.826Z,97770.31
2023-01-30T16:29:18.963Z,97773.16
2023-01-30T16:32:16.197Z,97777.54
2023-01-30T16:35:32.115Z,97783.11
2023-01-30T16:38:41.008Z,97782.33
2023-01-30T16:41:35.435Z,97784.00
2023-01-30T16:44:28.805Z,97791.05
2023-01-30T16:47:06.048Z,97787.56
2023-01-30T16:49:58.777Z,97787.41
2023-01-30T16:52:55.755Z,97785.60
2023-01-30T16:55:58.134Z,97791.16
2023-01-30T16:58:55.240Z,97793.36
2023-01-30T17:01:47.785Z,97787.27
2023-01-30T17:04:43.401Z,97790.75
2023-01-30T17:07:38.407Z,97791.19
2023-01-30T17:10:58.515Z,97798.79
2023-01-30T17:13:50.644Z,97798.13
2023-01-30T17:16:43.306Z,97792.65
2023-01-30T17:19:36.367Z,97786.31
2023-01-30T17:22:24.300Z,97789.09
2023-01-30T17:25:26.927Z,97793.39
2023-01-30T17:28:24.362Z,97799.79
2023-01-30T17:31:18.149Z,97794.66
2023-01-30T17:34:12.262Z,97798.29
2023-01-30T17:37:02.875Z,97803.71
2023-01-30T17:39:54.979Z,97799.47
2023-01-30T17:42:32.204Z,97797.18
2023-01-30T17:45:24.406Z,97797.39
2023-01-30T17:48:16.724Z,97795.33
2023-01-30T17:51:09.006Z,97794.55
2023-01-30T17:54:01.127Z,97794.30
2023-01-30T17:56:56.596Z,97788.86
2023-01-30T17:59:48.833Z,97785.71
2023-01-30T18:02:41.003Z,97778.30
2023-01-30T18:05:33.267Z,97778.41
2023-01-30T18:08:25.382Z,97774.58
2023-01-30T18:11:17.567Z,97773.30
2023-01-30T18:14:09.823Z,97771.13
2023-01-30T18:17:02.280Z,97770.67
2023-01-30T18:19:55.076Z,97768.98
2023-01-30T18:22:47.525Z,97771.09
2023-01-30T18:25:39.622Z,97776.30
2023-01-30T18:28:32.179Z,97778.48
2023-01-30T18:31:25.472Z,97773.30
2023-01-30T18:34:17.871Z,97770.32
2023-01-30T18:37:10.148Z,97764.75
2023-01-30T18:40:02.232Z,97766.38
2023-01-30T18:42:54.399Z,97766.66
2023-01-30T18:45:47.006Z,97766.98
2023-01-30T18:48:39.353Z,97767.00
2023-01-30T18:51:34.066Z,97768.48
2023-01-30T18:54:26.401Z,97762.36
2023-01-30T18:57:18.487Z,97758.35
2023-01-30T19:00:12.953Z,97764.00
2023-01-30T19:03:05.215Z,97762.23
2023-01-30T19:05:57.487Z,97760.48
2023-01-30T19:08:49.619Z,97752.55
2023-01-30T19:11:59.604Z,97756.03
2023-01-30T19:14:51.793Z,97760.75
2023-01-30T19:17:43.988Z,97759.41
2023-01-30T19:20:36.350Z,97762.27
2023-01-30T19:23:30.423Z,97757.33
2023-01-30T19:26:23.842Z,97767.09
2023-01-30T19:29:16.164Z,97768.20
2023-01-30T19:32:09.455Z,97773.27
2023-01-30T19:35:01.710Z,97781.99
2023-01-30T19:37:57.558Z,97785.38
2023-01-30T19:40:49.940Z,97785.46
2023-01-30T19:43:42.661Z,97788.82
2023-01-30T19:46:35.460Z,97792.84
2023-01-30T19:49:27.780Z,97792.94
2023-01-30T19:52:19.898Z,97793.37
2023-01-30T19:55:12.322Z,97793.93
2023-01-30T19:58:04.914Z,97789.08
2023-01-30T20:01:05.332Z,97800.34
2023-01-30T20:03:58.865Z,97804.38
2023-01-30T20:06:51.140Z,97802.97
2023-01-30T20:09:43.298Z,97806.83
2023-01-30T20:12:36.004Z,97798.48
2023-01-30T20:15:28.109Z,97799.87
2023-01-30T20:18:20.205Z,97805.65
2023-01-30T20:21:15.822Z,97812.06
2023-01-30T20:24:09.184Z,97803.48
2023-01-30T20:27:01.440Z,97805.48
2023-01-30T20:29:53.650Z,97796.30
2023-01-30T20:32:46.266Z,97799.48
2023-01-30T20:35:38.551Z,97801.91
2023-01-30T20:38:32.739Z,97806.48
2023-01-30T20:41:25.171Z,97807.80
2023-01-30T20:44:18.174Z,97814.04
2023-01-30T20:46:56.619Z,97815.73
2023-01-30T20:49:48.966Z,97819.99
2023-01-30T20:52:42.543Z,97827.83
2023-01-30T20:55:36.384Z,97825.67
2023-01-30T20:58:29.372Z,97828.80
2023-01-30T21:01:24.250Z,97829.45
2023-01-30T21:04:17.985Z,97826.04
2023-01-30T21:07:10.440Z,97831.18
2023-01-30T21:10:02.810Z,97831.70
2023-01-30T21:12:55.026Z,97832.29
2023-01-30T21:15:47.335Z,97836.14
2023-01-30T21:18:42.187Z,97838.11
2023-01-30T21:21:36.025Z,97860.30
2023-01-30T21:24:29.652Z,97860.71
2023-01-30T21:27:22.024Z,97862.24
2023-01-30T21:30:17.050Z,97864.64
2023-01-30T21:33:09.164Z,97869.90
2023-01-30T21:36:02.710Z,97871.69
2023-01-30T21:39:12.605Z,97870.55
2023-01-30T21:42:22.336Z,97875.14
2023-01-30T21:45:16.066Z,97883.88
2023-01-30T21:48:08.943Z,97887.36
2023-01-30T21:51:22.770Z,97891.16
2023-01-30T21:54:14.991Z,97890.80
2023-01-30T21:57:07.142Z,97897.55
2023-01-30T21:59:59.418Z,97906.79
2023-01-30T22:02:53.009Z,97907.79
2023-01-30T22:05:47.514Z,97919.17
2023-01-30T22:08:40.210Z,97924.80
2023-01-30T22:11:32.802Z,97922.91
2023-01-30T22:14:25.122Z,97932.80
2023-01-30T22:17:17.370Z,97925.25
2023-01-30T22:20:11.901Z,97932.50
2023-01-30T22:23:03.996Z,97937.00
2023-01-30T22:25:57.702Z,97939.07
2023-01-30T22:28:54.274Z,97941.45
2023-01-30T22:31:46.781Z,97940.76
2023-01-30T22:34:39.342Z,97938.61
2023-01-30T22:37:31.618Z,97946.13
2023-01-30T22:40:23.688Z,97940.34
2023-01-30T22:43:15.808Z,97943.80
2023-01-30T22:46:09.700Z,97950.21
2023-01-30T22:49:02.661Z,97951.25
2023-01-30T22:51:54.976Z,97952.23
2023-01-30T22:54:47.311Z,97957.89
2023-01-30T22:57:39.393Z,97963.89
2023-01-30T23:00:31.696Z,97966.77
2023-01-30T23:03:24.007Z,97966.77
2023-01-30T23:06:18.120Z,97963.59
2023-01-30T23:09:09.707Z,97971.60
2023-01-30T23:12:19.107Z,97979.09
2023-01-30T23:15:12.609Z,97976.58
2023-01-30T23:18:22.457Z,97986.27
2023-01-30T23:21:15.746Z,97987.17
2023-01-30T23:24:11.841Z,97988.18
2023-01-30T23:27:04.067Z,97991.54
2023-01-30T23:29:56.139Z,97997.30
2023-01-30T23:32:48.080Z,97990.74
2023-01-30T23:35:40.312Z,97992.28
2023-01-30T23:38:33.051Z,97983.63
2023-01-30T23:41:27.385Z,97981.08
2023-01-30T23:44:19.522Z,97977.95
2023-01-30T23:47:11.651Z,97981.33
2023-01-30T23:50:03.791Z,97987.84
2023-01-30T23:52:55.995Z,97988.58
2023-01-30T23:55:54.151Z,97985.62
2023-01-30T23:58:46.908Z,97987.95
